Time;durP1;ratioP1;P1;durP2;ratioP2;P2;SDS_P1;SDS_P2;PMS_P1;PMS_P2;Temp;Humidity;BMP_temperature;BMP_pressure;BME280_temperature;BME280_humidity;BME280_pressure;Samples;Min_cycle;Max_cycle;Signal;HPM_P1;HPM_P2
2022/11/20 00:01:38;;;;;;;48.17;32.05;;;;;;;6.78;98.19;96976.66;10254645;28;20116;-58
2022/11/20 00:06:37;;;;;;;41.97;30.40;;;;;;;6.79;98.33;96983.50;10255054;28;20397;-58
2022/11/20 00:11:36;;;;;;;54.47;38.00;;;;;;;6.64;98.52;96975.75;10253720;28;20042;-58
2022/11/20 00:16:35;;;;;;;48.72;33.88;;;;;;;6.53;98.38;96964.56;10254186;28;20018;-58
2022/11/20 00:21:34;;;;;;;48.55;32.97;;;;;;;6.47;99.26;96982.59;10254058;28;20149;-58
2022/11/20 00:26:33;;;;;;;53.28;27.50;;;;;;;6.45;98.56;96966.28;10252981;28;20492;-58
2022/11/20 00:31:33;;;;;;;46.20;29.25;;;;;;;6.46;98.18;96957.69;10254042;28;20065;-58
2022/11/20 00:36:33;;;;;;;42.38;27.67;;;;;;;6.30;98.50;96916.41;10253958;28;20074;-58
2022/11/20 00:41:32;;;;;;;40.25;26.35;;;;;;;6.33;98.26;96931.88;10253432;28;20081;-58
2022/11/20 00:46:31;;;;;;;41.33;27.38;;;;;;;6.26;99.64;96949.88;10252550;28;20038;-58
2022/11/20 00:51:30;;;;;;;44.03;27.15;;;;;;;6.27;99.46;96900.09;10252893;28;20089;-58
2022/11/20 00:56:29;;;;;;;41.80;27.88;;;;;;;6.29;99.25;96925.00;10252629;28;20448;-58
2022/11/20 01:01:29;;;;;;;33.22;23.08;;;;;;;6.21;99.68;96934.44;10252000;28;20157;-58
2022/11/20 01:06:36;;;;;;;38.17;23.83;;;;;;;6.21;98.64;96902.63;10252102;28;20073;-58
2022/11/20 01:11:38;;;;;;;47.45;27.83;;;;;;;6.20;98.80;96906.94;10252025;28;20066;-58
2022/11/20 01:16:41;;;;;;;64.78;33.05;;;;;;;6.15;98.74;96921.53;10251691;28;20077;-58
2022/11/20 01:21:42;;;;;;;65.80;33.92;;;;;;;6.10;99.53;96911.22;10250208;28;20148;-58
2022/11/20 01:26:43;;;;;;;117.28;48.42;;;;;;;6.09;99.79;96913.78;10251655;28;20093;-58
2022/11/20 01:31:42;;;;;;;45.65;27.92;;;;;;;6.07;100.00;96887.16;10266372;28;20578;-58
2022/11/20 01:36:42;;;;;;;48.92;28.75;;;;;;;6.16;100.00;96866.56;10250958;28;20495;-58
2022/11/20 01:47:02;;;;;;;162.90;68.38;;;;;;;6.32;100.00;96846.84;10250960;28;20827;-58
2022/11/20 01:52:34;;;;;;;56.47;29.05;;;;;;;6.38;100.00;96837.41;10250573;28;20122;-58
2022/11/20 01:57:35;;;;;;;56.28;32.15;;;;;;;6.46;100.00;96839.13;10226482;28;20279;-58
2022/11/20 02:02:35;;;;;;;57.85;31.60;;;;;;;6.51;100.00;96811.63;10250280;28;20078;-58
2022/11/20 02:07:34;;;;;;;77.93;40.33;;;;;;;6.52;100.00;96797.91;10250299;28;20511;-58
2022/11/20 02:17:51;;;;;;;186.75;76.45;;;;;;;6.45;100.00;96834.84;10250957;28;19971;-58
2022/11/20 02:22:58;;;;;;;34.63;20.25;;;;;;;6.48;100.00;96827.97;10250044;28;20108;-58
2022/11/20 02:27:57;;;;;;;36.15;21.08;;;;;;;6.33;100.00;96818.50;10249922;28;20109;-57
2022/11/20 02:32:57;;;;;;;38.22;23.75;;;;;;;6.38;100.00;96827.09;10249684;28;20089;-57
2022/11/20 02:38:00;;;;;;;35.58;22.45;;;;;;;6.51;100.00;96829.69;10249725;28;20514;-58
2022/11/20 02:42:59;;;;;;;35.72;22.13;;;;;;;6.63;100.00;96842.56;10249392;28;20062;-57
2022/11/20 02:47:58;;;;;;;67.35;40.00;;;;;;;6.74;100.00;96842.56;10264743;28;20034;-57
2022/11/20 02:52:57;;;;;;;30.88;19.73;;;;;;;6.84;100.00;96849.41;10249654;28;20046;-58
2022/11/20 02:57:56;;;;;;;64.63;33.50;;;;;;;6.87;100.00;96856.31;10249308;28;20062;-58
2022/11/20 03:02:55;;;;;;;29.23;19.33;;;;;;;6.82;100.00;96864.06;10248747;28;20058;-57
2022/11/20 03:07:54;;;;;;;24.98;17.50;;;;;;;6.83;100.00;96887.25;10248981;28;20077;-58
2022/11/20 03:12:55;;;;;;;24.55;16.85;;;;;;;6.93;100.00;96864.88;10248878;28;20037;-58
2022/11/20 03:17:55;;;;;;;24.38;16.92;;;;;;;6.89;100.00;96870.94;10249053;28;20492;-58
2022/11/20 03:22:54;;;;;;;26.77;17.25;;;;;;;6.92;100.00;96886.41;10253028;28;20077;-58
2022/11/20 03:27:54;;;;;;;44.92;27.38;;;;;;;7.00;100.00;96888.97;10255999;28;20074;-58
2022/11/20 03:32:54;;;;;;;22.85;14.95;;;;;;;7.14;100.00;96891.53;10255811;28;20070;-58
2022/11/20 03:37:53;;;;;;;21.90;14.70;;;;;;;7.20;100.00;96897.53;10255933;28;20069;-57
2022/11/20 03:42:52;;;;;;;21.98;15.00;;;;;;;7.27;100.00;96888.06;10254935;28;20053;-58
2022/11/20 03:47:51;;;;;;;23.48;13.85;;;;;;;7.37;100.00;96910.41;10255490;28;20049;-57
2022/11/20 03:52:50;;;;;;;24.05;16.65;;;;;;;7.36;100.00;96915.59;10254958;28;20093;-57
2022/11/20 03:57:49;;;;;;;15.57;9.20;;;;;;;7.50;100.00;96918.16;10254877;28;20036;-61
2022/11/20 04:02:48;;;;;;;14.98;10.85;;;;;;;7.64;100.00;96896.63;10254443;28;20526;-58
2022/11/20 04:07:47;;;;;;;13.60;9.75;;;;;;;7.60;100.00;96912.13;10254436;28;20439;-58
2022/11/20 04:12:46;;;;;;;14.48;10.00;;;;;;;7.69;99.82;96893.16;10254698;28;20110;-58
2022/11/20 04:17:45;;;;;;;17.10;10.77;;;;;;;7.82;99.87;96928.41;10254524;28;20031;-58
2022/11/20 04:22:44;;;;;;;14.93;9.45;;;;;;;7.99;99.63;96898.22;10253992;28;20057;-58
2022/11/20 04:27:42;;;;;;;15.52;9.77;;;;;;;8.06;99.58;96914.50;10252829;28;20034;-58
2022/11/20 04:32:41;;;;;;;13.20;9.90;;;;;;;8.16;99.54;96897.25;10253706;28;20030;-58
2022/11/20 04:37:40;;;;;;;15.45;10.73;;;;;;;8.26;99.55;96937.69;10253372;28;20474;-58
2022/11/20 04:42:39;;;;;;;19.95;13.55;;;;;;;8.22;99.98;96933.41;10253360;28;20026;-58
2022/11/20 04:47:38;;;;;;;15.40;10.38;;;;;;;8.40;99.16;96928.13;10252928;28;20114;-58
2022/11/20 04:52:37;;;;;;;18.67;12.25;;;;;;;8.42;99.03;96908.31;10252822;28;20109;-58
2022/11/20 04:57:36;;;;;;;17.95;13.18;;;;;;;8.33;99.09;96946.28;10252769;28;20162;-58
2022/11/20 05:02:35;;;;;;;24.77;16.17;;;;;;;8.39;99.10;96965.19;10252140;28;20133;-58
2022/11/20 05:07:34;;;;;;;20.23;12.32;;;;;;;8.25;99.37;96985.09;10251347;28;20121;-58
2022/11/20 05:12:33;;;;;;;22.73;13.77;;;;;;;8.24;99.06;96998.88;10251786;28;20038;-58
2022/11/20 05:17:32;;;;;;;18.92;12.40;;;;;;;8.39;98.58;97009.16;10252258;28;20408;-58
2022/11/20 05:22:31;;;;;;;25.88;16.20;;;;;;;8.40;98.37;97023.78;10251595;28;20084;-58
2022/11/20 05:27:30;;;;;;;23.83;15.05;;;;;;;8.28;98.52;97026.44;10251130;28;20049;-58
2022/11/20 05:32:29;;;;;;;26.92;16.17;;;;;;;8.35;98.65;97048.81;10251358;28;20045;-58
2022/11/20 05:37:28;;;;;;;31.67;18.48;;;;;;;8.42;98.30;97068.59;10249083;28;20053;-58
2022/11/20 05:42:30;;;;;;;23.90;15.25;;;;;;;8.36;98.75;97050.50;10250263;28;20034;-59
2022/11/20 05:47:33;;;;;;;23.63;14.43;;;;;;;8.03;99.70;97072.16;10248132;28;20121;-58
2022/11/20 05:52:32;;;;;;;24.23;14.40;;;;;;;8.00;100.00;97095.41;10249738;28;20078;-58
2022/11/20 05:57:31;;;;;;;17.00;9.93;;;;;;;7.96;100.00;97102.28;10249313;28;20026;-58
2022/11/20 06:02:30;;;;;;;;;;;;;;;7.75;100.00;97133.31;10250035;28;20539;-58
2022/11/20 06:07:29;;;;;;;27.13;14.32;;;;;;;7.75;100.00;97164.28;10248587;28;20439;-58
2022/11/20 06:12:31;;;;;;;25.30;14.55;;;;;;;7.87;100.00;97170.34;10248406;28;20169;-58
2022/11/20 06:17:30;;;;;;;28.60;16.83;;;;;;;8.18;100.00;97177.22;10247608;28;20078;-58
2022/11/20 06:22:29;;;;;;;27.08;15.13;;;;;;;8.20;100.00;97193.56;10247579;28;20129;-58
2022/11/20 06:27:28;;;;;;;29.13;18.83;;;;;;;8.26;100.00;97209.09;10244714;28;20040;-58
2022/11/20 06:32:27;;;;;;;32.55;19.77;;;;;;;8.21;100.00;97222.00;10246855;28;20046;-58
2022/11/20 06:37:26;;;;;;;30.73;19.60;;;;;;;8.17;100.00;97225.44;10244928;28;20034;-58
2022/11/20 06:42:25;;;;;;;31.60;19.83;;;;;;;8.21;100.00;97239.25;10249781;28;20121;-58
2022/11/20 06:47:24;;;;;;;30.60;18.50;;;;;;;8.17;100.00;97235.78;10247832;28;20053;-58
2022/11/20 06:52:23;;;;;;;35.20;22.15;;;;;;;8.23;100.00;97251.31;10248306;28;20476;-58
2022/11/20 06:57:22;;;;;;;88.78;62.10;;;;;;;8.21;99.59;97265.94;10252288;28;20056;-56
2022/11/20 07:02:21;;;;;;;48.45;32.13;;;;;;;8.14;100.00;97263.38;10255517;28;20050;-56
2022/11/20 07:07:20;;;;;;;68.68;48.65;;;;;;;8.08;100.00;97262.50;10255540;28;20088;-56
2022/11/20 07:12:19;;;;;;;78.13;55.28;;;;;;;8.21;100.00;97267.69;10255360;28;20026;-58
2022/11/20 07:17:18;;;;;;;74.22;46.97;;;;;;;8.23;100.00;97260.78;10254897;28;20274;-58
2022/11/20 07:22:17;;;;;;;69.13;38.53;;;;;;;8.35;100.00;97265.97;10255150;28;20042;-57
2022/11/20 07:27:16;;;;;;;35.45;22.67;;;;;;;8.25;100.00;97264.25;10253898;28;20041;-58
2022/11/20 07:32:15;;;;;;;30.58;20.13;;;;;;;8.37;100.00;97268.56;10254808;28;20107;-58
2022/11/20 07:37:14;;;;;;;38.05;23.23;;;;;;;8.26;100.00;97268.53;10253551;28;20030;-58
2022/11/20 07:42:13;;;;;;;;;;;;;;;8.13;100.00;97279.72;10254321;28;20077;-58
2022/11/20 07:47:12;;;;;;;36.95;23.63;;;;;;;8.29;100.00;97276.28;10253948;28;19920;-58
2022/11/20 07:52:11;;;;;;;31.50;18.35;;;;;;;8.58;100.00;97267.69;10254796;28;20114;-59
2022/11/20 07:57:10;;;;;;;32.42;18.65;;;;;;;8.67;99.79;97273.69;10252316;28;20022;-57
2022/11/20 08:02:11;;;;;;;;;;;;;;;8.59;99.78;97269.38;10253780;28;20353;-57
2022/11/20 08:07:10;;;;;;;39.47;23.73;;;;;;;8.68;100.00;97271.97;10252858;28;19957;-58
2022/11/20 08:17:36;;;;;;;30.73;19.55;;;;;;;9.01;99.68;97271.03;10252740;28;20073;-58
2022/11/20 08:22:35;;;;;;;64.72;46.50;;;;;;;9.20;99.25;97266.66;10252273;28;20038;-57
2022/11/20 08:27:34;;;;;;;38.53;25.67;;;;;;;9.32;98.86;97258.91;10252377;28;20045;-58
2022/11/20 08:32:34;;;;;;;26.73;17.15;;;;;;;9.23;97.85;97258.91;10252663;28;20096;-58
2022/11/20 08:37:33;;;;;;;32.92;23.60;;;;;;;9.30;98.01;97233.84;10252249;28;20069;-58
2022/11/20 08:42:32;;;;;;;28.13;17.88;;;;;;;9.43;97.45;97226.91;10251485;28;20034;-57
2022/11/20 08:47:31;;;;;;;34.85;21.17;;;;;;;9.53;97.46;97216.47;10251376;28;20030;-56
2022/11/20 08:52:30;;;;;;;30.90;20.20;;;;;;;9.64;97.72;97207.81;10251731;28;20033;-57
2022/11/20 08:57:32;;;;;;;28.02;19.77;;;;;;;9.81;97.33;97215.47;10251003;28;20381;-57
2022/11/20 09:02:32;;;;;;;31.85;22.05;;;;;;;9.98;96.92;97211.88;10251594;28;20070;-57
2022/11/20 09:07:31;;;;;;;48.30;35.50;;;;;;;9.93;95.98;97203.28;10250976;28;20089;-58
2022/11/20 09:12:30;;;;;;;40.58;30.80;;;;;;;10.01;96.35;97216.19;10250478;28;20073;-57
2022/11/20 09:17:29;;;;;;;27.20;17.42;;;;;;;10.03;95.59;97205.78;10250095;28;20029;-57
2022/11/20 09:22:28;;;;;;;34.13;23.60;;;;;;;10.12;95.52;97208.31;10249213;28;20046;-57
2022/11/20 09:27:27;;;;;;;26.90;18.33;;;;;;;10.23;95.59;97214.28;10249759;28;20062;-57
2022/11/20 09:32:26;;;;;;;56.97;36.20;;;;;;;10.22;94.53;97237.66;10249866;28;20109;-57
2022/11/20 09:37:24;;;;;;;44.67;28.70;;;;;;;10.08;94.11;97261.94;10249394;28;20113;-58
2022/11/20 09:42:23;;;;;;;24.63;15.73;;;;;;;9.86;94.70;97240.47;10249876;28;20121;-58
2022/11/20 09:47:31;;;;;;;28.55;18.77;;;;;;;9.32;96.20;97207.13;10249710;28;20047;-57
2022/11/20 09:52:49;;;;;;;32.35;20.15;;;;;;;9.21;97.60;97220.91;10249462;28;20073;-57
2022/11/20 09:57:51;;;;;;;33.58;20.42;;;;;;;9.24;98.09;97210.56;10249606;28;20069;-57
2022/11/20 10:03:01;;;;;;;44.08;29.08;;;;;;;9.28;98.94;97212.28;10249072;28;20077;-56
2022/11/20 10:08:09;;;;;;;;;;;;;;;9.30;98.89;97190.72;10247637;28;20592;-57
2022/11/20 10:13:29;;;;;;;49.53;34.33;;;;;;;9.28;99.80;97210.59;10248377;28;19953;-57
2022/11/20 10:19:03;;;;;;;52.95;35.72;;;;;;;9.26;100.00;97181.22;10248305;28;20073;-57
2022/11/20 10:24:24;;;;;;;68.93;47.60;;;;;;;9.23;100.00;97180.34;10246970;28;20069;-57
2022/11/20 10:29:33;;;;;;;58.72;37.97;;;;;;;9.13;100.00;97164.00;10208870;28;20500;-57
2022/11/20 10:34:50;;;;;;;50.30;32.80;;;;;;;9.15;100.00;97141.56;10217908;28;20066;-57
2022/11/20 10:40:06;;;;;;;45.10;28.55;;;;;;;9.30;100.00;97151.88;10254307;28;20151;-57
2022/11/20 10:45:28;;;;;;;57.58;37.90;;;;;;;9.26;100.00;97123.41;10255779;28;20066;-58
2022/11/20 10:50:28;;;;;;;53.83;36.03;;;;;;;9.13;100.00;97099.31;10256603;28;20084;-58
2022/11/20 10:55:42;;;;;;;53.88;37.75;;;;;;;9.28;100.00;97094.06;10254407;28;20561;-58
2022/11/20 11:00:42;;;;;;;59.72;43.78;;;;;;;9.47;100.00;97083.59;10252326;28;20082;-58
2022/11/20 11:05:50;;;;;;;79.95;55.70;;;;;;;9.28;100.00;97091.50;10252258;28;20122;-58
2022/11/20 11:10:58;;;;;;;51.92;32.58;;;;;;;8.96;100.00;97088.19;10253335;28;20117;-58
2022/11/20 11:15:58;;;;;;;55.15;37.15;;;;;;;8.69;100.00;97093.50;10255717;28;20085;-57
2022/11/20 11:20:58;;;;;;;;;;;;;;;8.46;100.00;97113.41;10254991;28;20069;-58
2022/11/20 11:25:58;;;;;;;68.65;46.53;;;;;;;8.39;100.00;97143.59;10254070;28;19949;-58
2022/11/20 11:30:57;;;;;;;83.30;57.67;;;;;;;8.34;100.00;97140.16;10269288;28;20093;-59
2022/11/20 11:36:03;;;;;;;39.47;26.55;;;;;;;8.38;100.00;97130.66;10253775;28;20081;-59
2022/11/20 11:41:04;;;;;;;45.35;28.42;;;;;;;8.47;100.00;97120.28;10253796;28;20357;-59
2022/11/20 11:46:09;;;;;;;40.80;25.05;;;;;;;8.61;100.00;97170.25;10253337;28;20093;-59
2022/11/20 11:51:09;;;;;;;66.88;45.10;;;;;;;8.65;100.00;97202.16;10253865;28;20069;-59
2022/11/20 11:56:11;;;;;;;37.33;22.52;;;;;;;8.48;100.00;97138.41;10253851;28;20081;-58
2022/11/20 12:01:43;;;;;;;41.15;24.35;;;;;;;8.46;100.00;97165.97;10253686;28;20074;-59
2022/11/20 12:06:53;;;;;;;36.00;24.08;;;;;;;8.36;100.00;97135.81;10253218;28;20069;-60
2022/11/20 12:12:05;;;;;;;45.97;29.40;;;;;;;8.46;100.00;97150.47;10253247;28;20069;-59
2022/11/20 12:17:04;;;;;;;47.65;30.40;;;;;;;8.52;100.00;97134.91;10252249;28;20061;-59
2022/11/20 12:22:22;;;;;;;38.17;25.30;;;;;;;8.61;100.00;97128.88;10252382;28;20496;-59
2022/11/20 12:27:48;;;;;;;37.38;26.50;;;;;;;8.63;100.00;97090.94;10252336;28;20485;-59
2022/11/20 12:32:59;;;;;;;37.55;25.77;;;;;;;8.71;100.00;97067.59;10252744;28;20480;-59
2022/11/20 12:38:35;;;;;;;31.27;23.58;;;;;;;8.77;100.00;97080.53;10252479;28;20564;-59
2022/11/20 12:49:25;;;;;;;40.75;29.48;;;;;;;9.06;100.00;97092.44;10251944;28;20065;-59
2022/11/20 12:54:36;;;;;;;41.95;29.85;;;;;;;9.11;100.00;97088.09;10251196;28;20085;-59
2022/11/20 12:59:41;;;;;;;44.20;31.92;;;;;;;9.20;100.00;97082.88;10250831;28;20488;-59
2022/11/20 13:05:02;;;;;;;68.95;49.72;;;;;;;9.18;100.00;97099.28;10248916;28;20121;-57
2022/11/20 13:10:04;;;;;;;42.63;29.85;;;;;;;9.25;100.00;97113.91;10247477;28;20062;-58
2022/11/20 13:15:18;;;;;;;43.63;30.30;;;;;;;9.29;100.00;97108.72;10247018;28;20106;-59
2022/11/20 13:20:18;;;;;;;68.10;46.75;;;;;;;9.38;100.00;97092.28;10248668;28;20061;-59
2022/11/20 13:25:32;;;;;;;34.42;26.75;;;;;;;9.24;100.00;97055.25;10250455;28;20527;-59
2022/11/20 13:30:32;;;;;;;38.42;29.15;;;;;;;9.28;100.00;97052.66;10250760;28;20547;-59
2022/11/20 13:35:54;;;;;;;87.18;56.25;;;;;;;9.15;100.00;97049.25;10250605;28;20074;-59
2022/11/20 13:40:58;;;;;;;83.18;55.92;;;;;;;9.18;100.00;97053.53;10249725;28;20077;-60
2022/11/20 13:46:00;;;;;;;82.15;52.50;;;;;;;9.32;100.00;97049.19;10249040;28;20062;-60
2022/11/20 13:51:06;;;;;;;60.25;39.92;;;;;;;9.44;100.00;97066.34;10249453;28;20073;-59
2022/11/20 13:56:17;;;;;;;41.03;28.75;;;;;;;9.53;100.00;97057.63;10248734;28;20062;-58
2022/11/20 14:01:19;;;;;;;34.92;22.75;;;;;;;9.58;100.00;97079.16;10249149;28;20078;-58
2022/11/20 14:06:42;;;;;;;34.50;24.05;;;;;;;9.65;100.00;97095.53;10248060;28;20065;-59
2022/11/20 14:11:46;;;;;;;34.10;24.40;;;;;;;9.56;100.00;97092.16;10240393;28;20074;-58
2022/11/20 14:16:47;;;;;;;43.42;30.55;;;;;;;9.56;100.00;97093.88;10248080;28;20077;-59
2022/11/20 14:21:51;;;;;;;33.10;23.45;;;;;;;9.64;100.00;97105.03;10248785;28;20065;-59
2022/11/20 14:26:52;;;;;;;33.35;24.70;;;;;;;9.70;100.00;97110.19;10247469;28;20076;-57
2022/11/20 14:31:53;;;;;;;38.47;29.40;;;;;;;9.70;100.00;97085.97;10249401;28;20078;-57
2022/11/20 14:36:58;;;;;;;51.17;38.35;;;;;;;9.70;100.00;97089.44;10247620;28;20496;-57
2022/11/20 14:41:57;;;;;;;51.55;39.08;;;;;;;9.69;100.00;97085.13;10247940;28;20644;-57
2022/11/20 14:46:58;;;;;;;56.35;42.25;;;;;;;9.69;100.00;97085.13;10247972;28;20077;-57
2022/11/20 14:52:14;;;;;;;51.20;39.10;;;;;;;9.70;100.00;97088.56;10248203;28;20076;-58
2022/11/20 14:57:29;;;;;;;49.25;38.15;;;;;;;9.69;100.00;97105.84;10247874;28;20069;-58
2022/11/20 15:02:30;;;;;;;49.33;38.67;;;;;;;9.74;100.00;97106.66;10248219;28;20077;-58
2022/11/20 15:07:35;;;;;;;53.65;39.20;;;;;;;9.80;100.00;97115.28;10247126;28;20073;-58
2022/11/20 15:12:38;;;;;;;54.40;41.92;;;;;;;9.82;100.00;97106.63;10248101;28;20065;-57
2022/11/20 15:17:40;;;;;;;81.20;59.85;;;;;;;9.73;100.00;97120.50;10251615;28;20066;-57
2022/11/20 15:22:39;;;;;;;103.63;81.00;;;;;;;9.74;100.00;97121.34;10253938;28;20068;-58
2022/11/20 15:27:38;;;;;;;92.88;69.65;;;;;;;9.68;100.00;97111.06;10254515;28;20022;-57
2022/11/20 15:32:37;;;;;;;124.20;95.07;;;;;;;9.62;100.00;97117.13;10254434;28;20142;-59
2022/11/20 15:37:40;;;;;;;95.88;74.30;;;;;;;9.58;100.00;97123.19;10254080;28;20037;-57
2022/11/20 15:43:02;;;;;;;86.35;63.88;;;;;;;9.61;100.00;97130.13;10254166;28;20063;-57
2022/11/20 15:47:58;;;;;;;78.68;56.75;;;;;;;9.63;100.00;97130.94;10253509;28;20058;-57
2022/11/20 15:52:57;;;;;;;;;;;;;;;9.68;100.00;97129.19;10253165;28;20084;-58
2022/11/20 15:57:56;;;;;;;87.13;59.85;;;;;;;9.69;100.00;97141.28;10253643;28;20000;-58
2022/11/20 16:02:55;;;;;;;84.30;61.75;;;;;;;9.76;100.00;97164.53;10253224;28;20492;-58
2022/11/20 16:07:54;;;;;;;95.63;74.82;;;;;;;9.69;100.00;97174.94;10252678;28;20411;-58
2022/11/20 16:18:11;;;;;;;81.97;61.08;;;;;;;9.39;100.00;97201.88;10252317;28;20070;-58
2022/11/20 16:23:11;;;;;;;98.40;72.65;;;;;;;9.52;100.00;97219.09;10252336;28;20078;-57
2022/11/20 16:28:10;;;;;;;;;;;;;;;9.55;100.00;97208.72;10252078;28;20065;-58
2022/11/20 16:33:17;;;;;;;60.25;44.65;;;;;;;9.37;100.00;97243.31;10251313;28;20645;-57
2022/11/20 16:38:16;;;;;;;44.28;29.05;;;;;;;9.44;100.00;97231.22;10252415;28;20066;-58
2022/11/20 16:43:15;;;;;;;73.78;52.75;;;;;;;9.40;100.00;97196.72;10251761;28;20030;-58
2022/11/20 16:48:15;;;;;;;108.30;79.43;;;;;;;9.17;100.00;97167.47;10251983;28;20073;-57
2022/11/20 16:53:15;;;;;;;110.40;81.78;;;;;;;9.38;100.00;97182.06;10252680;28;20097;-58
2022/11/20 16:58:14;;;;;;;82.65;58.42;;;;;;;9.41;100.00;97167.34;10250923;28;20065;-58
2022/11/20 17:03:14;;;;;;;81.00;60.03;;;;;;;9.50;100.00;97158.66;10251319;28;20085;-58
2022/11/20 17:08:12;;;;;;;66.55;50.75;;;;;;;9.52;100.00;97138.81;10250727;28;20097;-58
2022/11/20 17:13:11;;;;;;;67.35;49.15;;;;;;;9.40;100.00;97120.75;10250941;28;20030;-58
2022/11/20 17:18:10;;;;;;;68.05;51.97;;;;;;;9.39;100.00;97124.22;10249992;28;20035;-57
2022/11/20 17:23:09;;;;;;;76.55;54.42;;;;;;;9.41;100.00;97117.28;10248049;28;20042;-57
2022/11/20 17:28:08;;;;;;;70.55;50.92;;;;;;;9.39;100.00;97098.31;10249698;28;20113;-57
2022/11/20 17:33:07;;;;;;;69.85;50.80;;;;;;;9.37;100.00;97085.38;10224797;28;20034;-57
2022/11/20 17:38:06;;;;;;;77.15;57.97;;;;;;;9.33;100.00;97110.44;10227455;28;20026;-57
2022/11/20 17:43:05;;;;;;;90.65;64.97;;;;;;;9.30;100.00;97104.41;10249734;28;20516;-57
2022/11/20 17:48:04;;;;;;;103.82;73.13;;;;;;;9.32;100.00;97098.38;10249374;28;20038;-57
2022/11/20 17:53:03;;;;;;;;;;;;;;;9.32;100.00;97090.59;10250378;28;20089;-57
2022/11/20 17:58:05;;;;;;;94.28;63.20;;;;;;;9.35;100.00;97077.63;10249658;28;19913;-57
2022/11/20 18:03:04;;;;;;;107.38;77.13;;;;;;;9.32;100.00;97058.66;10249034;28;20515;-57
2022/11/20 18:08:03;;;;;;;188.23;135.20;;;;;;;9.26;100.00;97062.13;10249004;28;20030;-58
2022/11/20 18:13:02;;;;;;;168.35;121.72;;;;;;;9.29;100.00;97056.09;10249346;28;20499;-58
2022/11/20 18:18:01;;;;;;;194.15;136.93;;;;;;;9.19;100.00;97021.63;10249312;28;20480;-56
2022/11/20 18:23:00;;;;;;;213.57;149.43;;;;;;;9.20;100.00;96992.25;10248162;28;20066;-56
2022/11/20 18:27:59;;;;;;;191.68;130.25;;;;;;;9.13;100.00;96975.06;10248926;28;20081;-58
2022/11/20 18:32:58;;;;;;;139.43;97.40;;;;;;;9.13;100.00;96982.81;10248203;28;20025;-56
2022/11/20 18:37:57;;;;;;;110.70;77.32;;;;;;;9.16;100.00;96993.19;10248076;28;20034;-58
2022/11/20 18:48:13;;;;;;;84.07;55.97;;;;;;;9.11;100.00;96974.22;10247609;28;20074;-58
2022/11/20 18:53:12;;;;;;;98.22;67.38;;;;;;;9.01;100.00;96947.53;10253016;28;20070;-58
2022/11/20 18:58:11;;;;;;;91.70;57.85;;;;;;;8.93;100.00;96970.91;10254111;28;20045;-58
2022/11/20 19:03:10;;;;;;;357.35;193.73;;;;;;;8.84;100.00;96960.63;10255603;28;20042;-58
2022/11/20 19:08:09;;;;;;;226.50;143.80;;;;;;;8.85;100.00;96962.31;10255368;28;20034;-58
2022/11/20 19:13:08;;;;;;;416.40;244.85;;;;;;;8.91;100.00;96964.88;10255075;28;20089;-57
2022/11/20 19:18:07;;;;;;;246.43;145.38;;;;;;;8.96;100.00;96967.44;10254740;28;20056;-57
2022/11/20 19:23:06;;;;;;;196.57;129.20;;;;;;;9.04;100.00;96973.38;10254471;28;20036;-57
2022/11/20 19:28:05;;;;;;;76.72;44.42;;;;;;;9.03;100.00;96974.28;10252323;28;20038;-57
2022/11/20 19:33:04;;;;;;;72.63;45.00;;;;;;;9.10;100.00;96964.75;10254721;28;20044;-57
2022/11/20 19:38:03;;;;;;;84.40;47.95;;;;;;;9.23;100.00;96965.47;10254921;28;20070;-57
2022/11/20 19:43:03;;;;;;;;;;;;;;;9.25;100.00;96922.31;10255612;28;20177;-56
2022/11/20 19:48:02;;;;;;;;;;;;;;;9.16;100.00;96910.34;10255226;28;19952;-56
2022/11/20 19:53:01;;;;;;;122.85;75.38;;;;;;;9.21;100.00;96934.47;10253720;28;19918;-56
2022/11/20 19:58:02;;;;;;;139.48;86.53;;;;;;;9.30;100.00;96949.06;10253424;28;20039;-56
2022/11/20 20:03:01;;;;;;;112.60;67.22;;;;;;;9.34;100.00;96954.19;10250585;28;20085;-56
2022/11/20 20:08:00;;;;;;;109.80;61.90;;;;;;;9.43;100.00;96945.50;10229027;28;20070;-56
2022/11/20 20:12:58;;;;;;;111.32;67.82;;;;;;;9.34;100.00;96912.78;10212768;28;20049;-57
2022/11/20 20:17:57;;;;;;;142.55;89.80;;;;;;;9.27;100.00;96902.47;10213327;28;20034;-57
2022/11/20 20:22:56;;;;;;;130.95;81.45;;;;;;;9.26;100.00;96893.84;10212793;28;20038;-57
2022/11/20 20:27:55;;;;;;;91.80;60.65;;;;;;;9.33;100.00;96877.41;10242248;28;20104;-57
2022/11/20 20:32:54;;;;;;;121.10;72.47;;;;;;;9.41;100.00;96876.47;10249578;28;20117;-57
2022/11/20 20:37:53;;;;;;;113.03;67.03;;;;;;;9.45;100.00;96860.88;10253538;28;20173;-58
2022/11/20 20:42:52;;;;;;;117.95;70.22;;;;;;;9.49;100.00;96853.94;10252532;28;20166;-56
2022/11/20 20:47:51;;;;;;;129.50;77.28;;;;;;;9.46;100.00;96851.38;10251565;28;20060;-56
2022/11/20 20:52:50;;;;;;;129.88;70.85;;;;;;;9.49;100.00;96825.47;10251569;28;20086;-56
2022/11/20 20:57:49;;;;;;;101.70;58.17;;;;;;;9.46;100.00;96822.88;10250878;28;20036;-58
2022/11/20 21:02:48;;;;;;;108.13;56.53;;;;;;;9.41;100.00;96809.16;10251860;28;20489;-57
2022/11/20 21:13:05;;;;;;;84.65;42.65;;;;;;;9.43;100.00;96799.63;10252005;28;20070;-57
2022/11/20 21:18:04;;;;;;;159.80;86.78;;;;;;;9.38;100.00;96793.66;10252012;28;20038;-58
2022/11/20 21:23:07;;;;;;;98.25;53.45;;;;;;;9.41;100.00;96791.88;10251424;28;20072;-58
2022/11/20 21:28:07;;;;;;;102.97;58.00;;;;;;;9.42;100.00;96795.31;10251738;28;20532;-57
2022/11/20 21:33:06;;;;;;;110.15;59.78;;;;;;;9.44;100.00;96793.56;10250835;28;20362;-57
2022/11/20 21:38:05;;;;;;;116.43;62.63;;;;;;;9.49;100.00;96791.81;10250949;28;20030;-57
2022/11/20 21:43:04;;;;;;;112.53;63.00;;;;;;;9.49;100.00;96784.88;10250920;28;20030;-57
2022/11/20 21:48:03;;;;;;;135.82;74.45;;;;;;;9.45;100.00;96766.81;10250942;28;20037;-57
2022/11/20 21:53:02;;;;;;;;;;;;;;;9.43;100.00;96758.19;10251180;28;20066;-56
2022/11/20 21:58:01;;;;;;;181.07;105.55;;;;;;;9.35;100.00;96750.53;10250378;28;20004;-57
2022/11/20 22:03:00;;;;;;;148.48;84.40;;;;;;;9.26;100.00;96729.91;10250294;28;20053;-57
2022/11/20 22:07:58;;;;;;;143.95;82.18;;;;;;;9.09;100.00;96711.97;10250705;28;20419;-56
2022/11/20 22:18:16;;;;;;;126.82;72.40;;;;;;;9.20;100.00;96754.13;10210141;28;20516;-56
2022/11/20 22:23:15;;;;;;;122.15;68.25;;;;;;;9.24;100.00;96731.66;10210002;28;20078;-56
2022/11/20 22:28:14;;;;;;;122.55;65.47;;;;;;;9.20;100.00;96699.75;10240748;28;20144;-56
2022/11/20 22:33:13;;;;;;;96.35;58.42;;;;;;;9.01;100.00;96605.97;10249485;28;20038;-57
2022/11/20 22:38:12;;;;;;;59.00;39.47;;;;;;;8.90;100.00;96538.88;10250125;28;20038;-57
2022/11/20 22:43:11;;;;;;;77.55;52.47;;;;;;;8.85;100.00;96594.09;10249276;28;20040;-56
2022/11/20 22:48:11;;;;;;;102.10;65.45;;;;;;;8.56;100.00;96576.38;10249852;28;20110;-56
2022/11/20 22:53:10;;;;;;;78.55;52.60;;;;;;;8.49;100.00;96541.97;10249157;28;20077;-56
2022/11/20 22:58:09;;;;;;;82.78;55.45;;;;;;;8.65;100.00;96534.91;10249303;28;20043;-57
2022/11/20 23:03:07;;;;;;;96.68;60.40;;;;;;;8.83;100.00;96539.81;10248743;28;20058;-57
2022/11/20 23:08:06;;;;;;;54.58;38.95;;;;;;;8.87;100.00;96494.91;10249169;28;20222;-57
2022/11/20 23:13:05;;;;;;;55.35;37.45;;;;;;;8.94;100.00;96491.34;10249210;28;20034;-57
2022/11/20 23:18:04;;;;;;;61.42;42.35;;;;;;;9.02;100.00;96442.09;10246771;28;20050;-57
2022/11/20 23:23:03;;;;;;;67.72;45.33;;;;;;;8.73;100.00;96421.84;10246597;28;20080;-57
2022/11/20 23:28:02;;;;;;;59.05;36.65;;;;;;;8.81;100.00;96411.38;10246523;28;20038;-57
2022/11/20 23:33:02;;;;;;;67.60;41.33;;;;;;;8.66;100.00;96410.72;10248791;28;20070;-57
2022/11/20 23:38:01;;;;;;;78.88;41.97;;;;;;;8.59;100.00;96397.91;10248771;28;20061;-57